createdAt,value
2022-12-25T00:02:12.501Z,100813.13
2022-12-25T00:04:38.910Z,100809.47
2022-12-25T00:07:05.286Z,100824.75
2022-12-25T00:09:31.678Z,100817.88
2022-12-25T00:11:58.065Z,100811.88
2022-12-25T00:14:24.424Z,100816.28
2022-12-25T00:16:50.823Z,100806.00
2022-12-25T00:19:17.215Z,100812.16
2022-12-25T00:21:43.592Z,100815.34
2022-12-25T00:24:09.950Z,100819.53
2022-12-25T00:26:36.355Z,100823.78
2022-12-25T00:29:02.810Z,100835.41
2022-12-25T00:31:29.380Z,100832.25
2022-12-25T00:33:55.819Z,100832.13
2022-12-25T00:36:22.698Z,100831.91
2022-12-25T00:38:49.271Z,100825.09
2022-12-25T00:41:38.552Z,100823.41
2022-12-25T00:44:05.647Z,100816.88
2022-12-25T00:46:32.098Z,100820.28
2022-12-25T00:49:01.918Z,100812.13
2022-12-25T00:51:28.575Z,100800.00
2022-12-25T00:53:54.948Z,100803.75
2022-12-25T00:56:21.310Z,100798.94
2022-12-25T00:58:47.709Z,100802.19
2022-12-25T01:01:14.315Z,100796.25
2022-12-25T01:03:40.870Z,100794.97
2022-12-25T01:06:08.484Z,100792.38
2022-12-25T01:08:37.135Z,100800.34
2022-12-25T01:11:07.976Z,100800.66
2022-12-25T01:13:36.511Z,100805.63
2022-12-25T01:16:10.413Z,100801.28
2022-12-25T01:18:37.689Z,100799.50
2022-12-25T01:21:11.256Z,100794.78
2022-12-25T01:23:37.967Z,100796.84
2022-12-25T01:26:05.452Z,100794.13
2022-12-25T01:28:31.825Z,100793.16
2022-12-25T01:30:58.229Z,100804.16
2022-12-25T01:33:24.783Z,100792.84
2022-12-25T01:35:51.641Z,100793.59
2022-12-25T01:38:18.025Z,100792.78
2022-12-25T01:40:44.409Z,100790.38
2022-12-25T01:43:28.426Z,100792.91
2022-12-25T01:45:55.172Z,100780.16
2022-12-25T01:48:23.981Z,100797.06
2022-12-25T01:50:58.154Z,100784.56
2022-12-25T01:53:25.875Z,100791.56
2022-12-25T01:55:56.728Z,100781.25
2022-12-25T01:58:23.151Z,100769.94
2022-12-25T02:00:51.457Z,100775.72
2022-12-25T02:03:18.380Z,100778.19
2022-12-25T02:05:46.294Z,100772.78
2022-12-25T02:08:15.085Z,100774.31
2022-12-25T02:10:43.570Z,100770.47
2022-12-25T02:13:10.879Z,100774.84
2022-12-25T02:16:03.512Z,100777.81
2022-12-25T02:18:34.758Z,100777.69
2022-12-25T02:21:10.127Z,100776.53
2022-12-25T02:23:53.116Z,100778.72
2022-12-25T02:26:31.688Z,100779.50
2022-12-25T02:29:01.576Z,100779.22
2022-12-25T02:31:41.795Z,100783.63
2022-12-25T02:34:46.050Z,100780.03
2022-12-25T02:37:32.644Z,100784.50
2022-12-25T02:40:19.947Z,100786.84
2022-12-25T02:43:25.612Z,100794.72
2022-12-25T02:46:13.828Z,100787.47
2022-12-25T02:49:09.618Z,100786.31
2022-12-25T02:51:57.817Z,100783.63
2022-12-25T02:54:53.100Z,100789.56
2022-12-25T02:57:41.262Z,100788.78
2022-12-25T03:00:26.696Z,100786.56
2022-12-25T03:03:13.163Z,100785.69
2022-12-25T03:06:00.587Z,100769.28
2022-12-25T03:08:31.395Z,100780.41
2022-12-25T03:11:28.729Z,100780.75
2022-12-25T03:14:21.026Z,100782.19
2022-12-25T03:16:54.555Z,100773.78
2022-12-25T03:19:47.195Z,100778.47
2022-12-25T03:22:34.419Z,100775.63
2022-12-25T03:25:19.531Z,100773.94
2022-12-25T03:27:46.459Z,100769.69
2022-12-25T03:30:31.665Z,100772.78
2022-12-25T03:33:43.206Z,100766.44
2022-12-25T03:36:11.539Z,100763.22
2022-12-25T03:38:49.356Z,100756.50
2022-12-25T03:41:39.903Z,100765.00
2022-12-25T03:44:51.822Z,100755.94
2022-12-25T03:47:52.432Z,100749.50
2022-12-25T03:50:40.850Z,100756.47
2022-12-25T03:53:30.080Z,100756.88
2022-12-25T03:56:15.465Z,100738.88
2022-12-25T03:59:21.036Z,100741.75
2022-12-25T04:02:08.423Z,100744.03
2022-12-25T04:04:53.543Z,100741.09
2022-12-25T04:07:38.223Z,100745.09
2022-12-25T04:10:23.762Z,100722.28
2022-12-25T04:13:08.436Z,100722.47
2022-12-25T04:15:53.318Z,100710.63
2022-12-25T04:18:38.140Z,100720.38
2022-12-25T04:21:22.813Z,100724.28
2022-12-25T04:24:07.762Z,100734.47
2022-12-25T04:26:52.426Z,100734.97
2022-12-25T04:29:37.174Z,100740.00
2022-12-25T04:32:21.948Z,100746.59
2022-12-25T04:35:06.802Z,100743.00
2022-12-25T04:37:34.194Z,100749.03
2022-12-25T04:40:00.581Z,100744.13
2022-12-25T04:42:26.928Z,100742.34
2022-12-25T04:44:53.309Z,100741.81
2022-12-25T04:47:19.670Z,100742.34
2022-12-25T04:49:46.053Z,100749.28
2022-12-25T04:52:12.430Z,100752.00
2022-12-25T04:54:38.928Z,100754.44
2022-12-25T04:57:05.788Z,100753.19
2022-12-25T04:59:32.183Z,100744.69
2022-12-25T05:01:58.613Z,100754.72
2022-12-25T05:04:25.036Z,100748.28
2022-12-25T05:06:51.478Z,100744.41
2022-12-25T05:09:17.888Z,100735.53
2022-12-25T05:11:44.313Z,100733.34
2022-12-25T05:14:10.676Z,100728.72
2022-12-25T05:16:37.139Z,100722.41
2022-12-25T05:19:03.526Z,100727.41
2022-12-25T05:21:29.921Z,100728.69
2022-12-25T05:23:56.294Z,100736.94
2022-12-25T05:26:25.162Z,100731.53
2022-12-25T05:28:51.790Z,100732.31
2022-12-25T05:31:18.432Z,100720.72
2022-12-25T05:33:44.836Z,100716.72
2022-12-25T05:36:12.355Z,100718.78
2022-12-25T05:38:39.125Z,100713.50
2022-12-25T05:41:05.906Z,100714.53
2022-12-25T05:43:32.274Z,100711.44
2022-12-25T05:46:04.228Z,100706.03
2022-12-25T05:48:30.697Z,100710.25
2022-12-25T05:50:57.083Z,100705.63
2022-12-25T05:53:23.443Z,100702.44
2022-12-25T05:55:49.842Z,100712.75
2022-12-25T05:58:16.209Z,100711.81
2022-12-25T06:00:43.623Z,100708.06
2022-12-25T06:03:10.047Z,100705.25
2022-12-25T06:05:38.008Z,100702.66
2022-12-25T06:08:04.410Z,100703.16
2022-12-25T06:10:30.851Z,100686.03
2022-12-25T06:12:57.243Z,100687.59
2022-12-25T06:15:23.612Z,100701.25
2022-12-25T06:17:49.986Z,100705.09
2022-12-25T06:20:16.395Z,100696.97
2022-12-25T06:22:42.812Z,100691.56
2022-12-25T06:25:09.649Z,100694.66
2022-12-25T06:27:36.159Z,100691.81
2022-12-25T06:30:02.840Z,100687.06
2022-12-25T06:32:29.215Z,100688.47
2022-12-25T06:34:55.615Z,100676.22
2022-12-25T06:37:22.019Z,100678.69
2022-12-25T06:39:48.437Z,100678.16
2022-12-25T06:42:14.827Z,100670.94
2022-12-25T06:44:41.206Z,100674.81
2022-12-25T06:47:07.612Z,100664.75
2022-12-25T06:49:34.018Z,100658.16
2022-12-25T06:52:00.385Z,100648.22
2022-12-25T06:54:27.066Z,100637.69
2022-12-25T06:56:53.512Z,100641.31
2022-12-25T06:59:19.957Z,100644.19
2022-12-25T07:01:49.599Z,100647.00
2022-12-25T07:04:40.198Z,100653.97
2022-12-25T07:07:09.235Z,100658.63
2022-12-25T07:09:35.896Z,100656.78
2022-12-25T07:12:05.203Z,100653.84
2022-12-25T07:14:31.791Z,100650.75
2022-12-25T07:16:58.230Z,100639.03
2022-12-25T07:19:24.778Z,100646.00
2022-12-25T07:21:51.137Z,100639.28
2022-12-25T07:24:19.324Z,100629.38
2022-12-25T07:26:45.702Z,100626.25
2022-12-25T07:29:12.079Z,100623.31
2022-12-25T07:31:38.482Z,100623.31
2022-12-25T07:34:04.906Z,100611.84
2022-12-25T07:36:31.280Z,100603.75
2022-12-25T07:38:57.682Z,100602.69
2022-12-25T07:41:24.093Z,100605.00
2022-12-25T07:43:53.805Z,100607.06
2022-12-25T07:46:21.742Z,100615.16
2022-12-25T07:48:48.241Z,100610.69
2022-12-25T07:51:16.051Z,100617.13
2022-12-25T07:53:42.662Z,100617.38
2022-12-25T07:56:17.354Z,100613.25
2022-12-25T07:58:44.187Z,100615.28
2022-12-25T08:01:20.170Z,100618.97
2022-12-25T08:03:51.429Z,100616.03
2022-12-25T08:06:18.429Z,100593.63
2022-12-25T08:08:45.145Z,100593.16
2022-12-25T08:11:11.514Z,100588.91
2022-12-25T08:13:38.322Z,100592.47
2022-12-25T08:16:07.923Z,100598.28
2022-12-25T08:18:34.877Z,100577.19
2022-12-25T08:21:06.423Z,100577.56
2022-12-25T08:23:37.791Z,100568.56
2022-12-25T08:26:06.013Z,100574.19
2022-12-25T08:28:33.291Z,100571.72
2022-12-25T08:30:59.759Z,100583.28
2022-12-25T08:33:26.254Z,100588.19
2022-12-25T08:35:52.624Z,100587.78
2022-12-25T08:38:19.107Z,100591.53
2022-12-25T08:40:45.523Z,100582.97
2022-12-25T08:43:11.949Z,100598.94
2022-12-25T08:45:38.343Z,100594.69
2022-12-25T08:48:04.748Z,100605.00
2022-12-25T08:50:31.134Z,100587.53
2022-12-25T08:52:57.513Z,100595.53
2022-12-25T08:55:23.883Z,100578.38
2022-12-25T08:57:53.179Z,100573.88
2022-12-25T09:00:19.820Z,100580.94
2022-12-25T09:02:46.300Z,100587.31
2022-12-25T09:05:12.773Z,100595.34
2022-12-25T09:07:39.136Z,100622.13
2022-12-25T09:10:06.167Z,100621.44
2022-12-25T09:12:32.576Z,100619.59
2022-12-25T09:14:58.964Z,100618.56
2022-12-25T09:17:25.357Z,100617.03
2022-12-25T09:19:51.782Z,100605.41
2022-12-25T09:22:19.203Z,100590.94
2022-12-25T09:24:45.590Z,100592.75
2022-12-25T09:27:11.976Z,100587.31
2022-12-25T09:29:39.021Z,100577.25
2022-12-25T09:32:06.009Z,100566.13
2022-12-25T09:34:32.763Z,100555.03
2022-12-25T09:36:59.144Z,100556.47
2022-12-25T09:39:26.777Z,100563.38
2022-12-25T09:41:59.101Z,100578.78
2022-12-25T09:44:29.079Z,100569.78
2022-12-25T09:46:59.563Z,100573.44
2022-12-25T09:49:47.222Z,100583.41
2022-12-25T09:52:20.599Z,100586.63
2022-12-25T09:54:53.562Z,100588.03
2022-12-25T09:57:20.131Z,100591.00
2022-12-25T09:59:47.542Z,100601.31
2022-12-25T10:02:28.700Z,100608.25
2022-12-25T10:05:07.810Z,100608.75
2022-12-25T10:07:56.396Z,100609.00
2022-12-25T10:10:45.435Z,100618.25
2022-12-25T10:13:42.582Z,100614.38
2022-12-25T10:16:18.289Z,100609.16
2022-12-25T10:19:12.078Z,100592.16
2022-12-25T10:21:38.753Z,100594.63
2022-12-25T10:24:06.776Z,100588.81
2022-12-25T10:26:34.854Z,100581.63
2022-12-25T10:29:05.742Z,100572.28
2022-12-25T10:31:34.825Z,100571.22
2022-12-25T10:34:01.365Z,100555.47
2022-12-25T10:36:29.434Z,100558.59
2022-12-25T10:38:56.187Z,100545.78
2022-12-25T10:41:41.291Z,100528.78
2022-12-25T10:44:21.755Z,100521.28
2022-12-25T10:46:50.283Z,100512.66
2022-12-25T10:49:19.991Z,100517.81
2022-12-25T10:51:46.593Z,100514.31
2022-12-25T10:54:31.380Z,100521.16
2022-12-25T10:57:20.411Z,100528.78
2022-12-25T10:59:49.228Z,100531.38
2022-12-25T11:02:21.527Z,100525.72
2022-12-25T11:04:48.317Z,100529.13
2022-12-25T11:07:17.714Z,100538.38
2022-12-25T11:09:59.375Z,100525.81
2022-12-25T11:12:37.470Z,100515.50
2022-12-25T11:15:07.395Z,100507.63
2022-12-25T11:17:35.869Z,100505.63
2022-12-25T11:20:02.498Z,100503.03
2022-12-25T11:22:29.280Z,100498.06
2022-12-25T11:24:55.779Z,100482.13
2022-12-25T11:27:28.229Z,100485.91
2022-12-25T11:29:59.950Z,100472.75
2022-12-25T11:32:31.715Z,100475.13
2022-12-25T11:34:59.258Z,100465.72
2022-12-25T11:37:28.322Z,100469.63
2022-12-25T11:39:54.754Z,100456.38
2022-12-25T11:42:36.929Z,100454.47
2022-12-25T11:45:06.814Z,100438.78
2022-12-25T11:47:42.137Z,100449.94
2022-12-25T11:50:30.832Z,100437.72
2022-12-25T11:53:00.328Z,100435.91
2022-12-25T11:55:37.379Z,100434.38
2022-12-25T11:58:22.760Z,100430.53
2022-12-25T12:00:51.536Z,100416.19
2022-12-25T12:03:22.426Z,100409.66
2022-12-25T12:05:54.136Z,100401.34
2022-12-25T12:08:20.521Z,100392.59
2022-12-25T12:11:24.901Z,100381.94
2022-12-25T12:14:22.275Z,100379.13
2022-12-25T12:16:48.729Z,100364.63
2022-12-25T12:19:41.753Z,100368.78
2022-12-25T12:22:17.385Z,100369.13
2022-12-25T12:24:44.549Z,100352.50
2022-12-25T12:27:37.213Z,100353.84
2022-12-25T12:30:05.060Z,100356.22
2022-12-25T12:32:45.043Z,100349.44
2022-12-25T12:35:18.239Z,100346.44
2022-12-25T12:37:46.809Z,100348.69
2022-12-25T12:40:29.362Z,100349.16
2022-12-25T12:42:55.856Z,100335.22
2022-12-25T12:45:30.186Z,100327.81
2022-12-25T12:47:57.395Z,100335.56
2022-12-25T12:50:50.053Z,100334.66
2022-12-25T12:53:22.432Z,100332.63
2022-12-25T12:55:49.445Z,100343.44
2022-12-25T12:58:30.929Z,100345.66
2022-12-25T13:01:33.083Z,100340.50
2022-12-25T13:04:13.802Z,100320.81
2022-12-25T13:06:53.877Z,100316.34
2022-12-25T13:09:57.118Z,100317.56
2022-12-25T13:12:23.671Z,100297.81
2022-12-25T13:14:50.369Z,100291.22
2022-12-25T13:17:24.972Z,100292.66
2022-12-25T13:19:58.931Z,100293.53
2022-12-25T13:22:30.995Z,100287.69
2022-12-25T13:25:02.486Z,100287.81
2022-12-25T13:27:31.664Z,100278.72
2022-12-25T13:29:58.666Z,100276.03
2022-12-25T13:32:28.119Z,100274.44
2022-12-25T13:34:54.953Z,100265.69
2022-12-25T13:37:23.619Z,100265.97
2022-12-25T13:39:51.710Z,100270.81
2022-12-25T13:42:21.034Z,100267.75
2022-12-25T13:44:48.367Z,100268.69
2022-12-25T13:47:19.797Z,100274.84
2022-12-25T13:49:47.286Z,100268.69
2022-12-25T13:52:22.477Z,100274.94
2022-12-25T13:55:09.767Z,100274.94
2022-12-25T13:57:38.952Z,100272.47
2022-12-25T14:00:07.579Z,100273.91
2022-12-25T14:02:38.278Z,100266.84
2022-12-25T14:05:26.450Z,100260.03
2022-12-25T14:07:54.012Z,100270.34
2022-12-25T14:10:22.242Z,100268.66
2022-12-25T14:12:50.831Z,100260.03
2022-12-25T14:15:19.713Z,100256.97
2022-12-25T14:17:46.380Z,100249.06
2022-12-25T14:20:24.983Z,100253.16
2022-12-25T14:22:56.181Z,100255.25
2022-12-25T14:25:42.213Z,100245.03
2022-12-25T14:28:17.981Z,100245.03
2022-12-25T14:30:44.561Z,100251.34
2022-12-25T14:33:16.241Z,100247.97
2022-12-25T14:35:42.622Z,100232.81
2022-12-25T14:38:24.393Z,100235.19
2022-12-25T14:41:22.608Z,100237.72
2022-12-25T14:43:53.970Z,100236.47
2022-12-25T14:46:28.477Z,100234.88
2022-12-25T14:49:22.981Z,100237.72
2022-12-25T14:51:49.487Z,100236.13
2022-12-25T14:54:19.543Z,100235.44
2022-12-25T14:56:51.378Z,100243.28
2022-12-25T14:59:21.073Z,100240.91
2022-12-25T15:01:58.955Z,100245.72
2022-12-25T15:04:26.786Z,100244.16
2022-12-25T15:07:02.381Z,100233.63
2022-12-25T15:09:29.960Z,100229.13
2022-12-25T15:11:56.643Z,100230.69
2022-12-25T15:14:24.217Z,100229.34
2022-12-25T15:16:53.074Z,100221.22
2022-12-25T15:19:25.966Z,100227.53
2022-12-25T15:21:55.594Z,100227.16
2022-12-25T15:24:22.018Z,100229.75
2022-12-25T15:26:48.420Z,100224.66
2022-12-25T15:29:14.813Z,100229.34
2022-12-25T15:31:42.018Z,100226.19
2022-12-25T15:34:20.736Z,100225.88
2022-12-25T15:36:47.994Z,100225.88
2022-12-25T15:39:14.393Z,100210.81
2022-12-25T15:41:59.538Z,100203.88
2022-12-25T15:44:25.978Z,100193.44
2022-12-25T15:46:52.697Z,100203.69
2022-12-25T15:49:19.342Z,100195.53
2022-12-25T15:51:46.127Z,100199.44
2022-12-25T15:54:12.750Z,100196.50
2022-12-25T15:56:42.697Z,100193.94
2022-12-25T15:59:12.265Z,100189.66
2022-12-25T16:01:40.031Z,100193.16
2022-12-25T16:04:06.530Z,100192.81
2022-12-25T16:06:32.898Z,100189.56
2022-12-25T16:08:59.288Z,100189.03
2022-12-25T16:11:25.671Z,100189.69
2022-12-25T16:13:52.107Z,100184.63
2022-12-25T16:16:18.532Z,100178.00
2022-12-25T16:18:47.747Z,100183.59
2022-12-25T16:21:16.752Z,100192.44
2022-12-25T16:23:43.472Z,100193.56
2022-12-25T16:26:09.994Z,100185.63
2022-12-25T16:28:36.393Z,100182.38
2022-12-25T16:31:02.836Z,100169.47
2022-12-25T16:33:29.344Z,100170.25
2022-12-25T16:35:55.748Z,100177.78
2022-12-25T16:38:22.142Z,100162.97
2022-12-25T16:40:55.079Z,100162.06
2022-12-25T16:43:24.105Z,100158.00
2022-12-25T16:45:50.904Z,100158.72
2022-12-25T16:48:17.399Z,100159.91
2022-12-25T16:50:43.827Z,100156.00
2022-12-25T16:53:12.201Z,100159.56
2022-12-25T16:55:38.699Z,100154.16
2022-12-25T16:58:06.252Z,100160.28
2022-12-25T17:00:32.705Z,100146.53
2022-12-25T17:03:00.270Z,100157.06
2022-12-25T17:05:26.983Z,100161.09
2022-12-25T17:07:53.390Z,100149.47
2022-12-25T17:10:21.122Z,100140.59
2022-12-25T17:12:47.548Z,100148.00
2022-12-25T17:15:13.943Z,100142.41
2022-12-25T17:17:40.313Z,100143.28
2022-12-25T17:20:07.292Z,100143.13
2022-12-25T17:22:33.662Z,100128.84
2022-12-25T17:25:00.040Z,100131.06
2022-12-25T17:27:26.727Z,100129.88
2022-12-25T17:29:53.102Z,100123.94
2022-12-25T17:32:19.478Z,100127.50
2022-12-25T17:34:46.670Z,100132.47
2022-12-25T17:37:13.094Z,100133.94
2022-12-25T17:39:39.524Z,100140.03
2022-12-25T17:42:05.890Z,100140.44
2022-12-25T17:44:32.291Z,100128.84
2022-12-25T17:46:58.786Z,100135.25
2022-12-25T17:49:25.451Z,100135.13
2022-12-25T17:51:53.396Z,100110.09
2022-12-25T17:54:19.800Z,100116.66
2022-12-25T17:56:46.193Z,100114.75
2022-12-25T17:59:17.872Z,100115.53
2022-12-25T18:01:44.673Z,100117.84
2022-12-25T18:04:11.131Z,100124.19
2022-12-25T18:06:37.597Z,100127.91
2022-12-25T18:09:06.044Z,100123.75
2022-12-25T18:11:33.134Z,100125.84
2022-12-25T18:14:04.059Z,100108.19
2022-12-25T18:16:33.514Z,100107.97
2022-12-25T18:19:00.239Z,100102.06
2022-12-25T18:21:26.823Z,100100.69
2022-12-25T18:23:53.364Z,100102.31
2022-12-25T18:26:20.521Z,100090.72
2022-12-25T18:28:48.678Z,100095.03
2022-12-25T18:31:18.080Z,100099.28
2022-12-25T18:33:44.721Z,100103.97
2022-12-25T18:36:13.274Z,100094.63
2022-12-25T18:38:39.660Z,100109.03
2022-12-25T18:41:07.097Z,100106.03
2022-12-25T18:43:54.149Z,100110.94
2022-12-25T18:46:22.167Z,100115.81
2022-12-25T18:48:48.775Z,100120.81
2022-12-25T18:51:15.278Z,100114.84
2022-12-25T18:53:41.750Z,100111.34
2022-12-25T18:56:13.351Z,100109.78
2022-12-25T18:58:40.247Z,100113.97
2022-12-25T19:01:19.227Z,100111.47
2022-12-25T19:03:46.231Z,100120.03
2022-12-25T19:06:23.847Z,100117.34
2022-12-25T19:08:51.087Z,100116.25
2022-12-25T19:11:18.355Z,100122.03
2022-12-25T19:13:44.846Z,100122.03
2022-12-25T19:16:11.776Z,100130.72
2022-12-25T19:18:38.990Z,100128.72
2022-12-25T19:21:07.977Z,100128.22
2022-12-25T19:23:34.935Z,100141.34
2022-12-25T19:26:04.584Z,100135.78
2022-12-25T19:28:30.988Z,100137.66
2022-12-25T19:30:59.583Z,100139.56
2022-12-25T19:33:26.434Z,100136.97
2022-12-25T19:35:52.826Z,100139.38
2022-12-25T19:38:20.065Z,100137.97
2022-12-25T19:41:00.543Z,100141.84
2022-12-25T19:43:36.084Z,100146.44
2022-12-25T19:46:03.500Z,100155.91
2022-12-25T19:48:31.021Z,100161.63
2022-12-25T19:50:57.640Z,100163.81
2022-12-25T19:53:24.427Z,100179.34
2022-12-25T19:55:54.847Z,100180.63
2022-12-25T19:58:22.408Z,100179.72
2022-12-25T20:01:07.440Z,100184.81
2022-12-25T20:03:38.770Z,100196.28
2022-12-25T20:06:11.078Z,100192.53
2022-12-25T20:08:37.536Z,100185.97
2022-12-25T20:11:03.901Z,100186.66
2022-12-25T20:13:30.295Z,100174.13
2022-12-25T20:16:01.216Z,100179.09
2022-12-25T20:18:28.218Z,100180.84
2022-12-25T20:21:06.038Z,100187.50
2022-12-25T20:23:32.716Z,100185.69
2022-12-25T20:26:01.180Z,100187.19
2022-12-25T20:28:28.369Z,100191.50
2022-12-25T20:30:55.679Z,100189.50
2022-12-25T20:33:22.763Z,100187.00
2022-12-25T20:35:49.951Z,100185.53
2022-12-25T20:38:16.660Z,100192.09
2022-12-25T20:41:24.600Z,100205.91
2022-12-25T20:43:29.930Z,100200.63
2022-12-25T20:45:56.436Z,100217.34
2022-12-25T20:48:23.080Z,100212.28
2022-12-25T20:50:49.655Z,100213.78
2022-12-25T20:53:16.813Z,100206.13
2022-12-25T20:55:47.732Z,100208.25
2022-12-25T20:58:15.158Z,100209.00
2022-12-25T21:00:43.077Z,100200.50
2022-12-25T21:03:09.805Z,100203.47
2022-12-25T21:05:49.738Z,100206.66
2022-12-25T21:08:21.380Z,100201.84
2022-12-25T21:10:52.177Z,100208.25
2022-12-25T21:13:24.773Z,100210.38
2022-12-25T21:15:52.539Z,100214.88
2022-12-25T21:18:20.600Z,100213.28
2022-12-25T21:20:49.161Z,100212.16
2022-12-25T21:23:16.871Z,100212.16
2022-12-25T21:25:43.324Z,100206.28
2022-12-25T21:28:09.943Z,100207.69
2022-12-25T21:30:36.604Z,100205.88
2022-12-25T21:33:21.621Z,100195.53
2022-12-25T21:35:48.045Z,100200.28
2022-12-25T21:38:15.137Z,100191.81
2022-12-25T21:40:41.653Z,100197.69
2022-12-25T21:43:08.065Z,100194.72
2022-12-25T21:45:34.952Z,100196.50
2022-12-25T21:48:03.579Z,100195.63
2022-12-25T21:50:48.891Z,100209.25
2022-12-25T21:53:19.159Z,100218.81
2022-12-25T21:55:56.754Z,100180.69
2022-12-25T21:58:23.298Z,100191.41
2022-12-25T22:00:49.656Z,100192.94
2022-12-25T22:03:16.182Z,100203.38
2022-12-25T22:06:01.371Z,100198.91
2022-12-25T22:08:31.851Z,100191.75
2022-12-25T22:10:58.954Z,100199.59
2022-12-25T22:13:43.960Z,100221.59
2022-12-25T22:16:29.137Z,100235.03
2022-12-25T22:19:13.796Z,100243.38
2022-12-25T22:21:40.164Z,100246.75
2022-12-25T22:24:08.118Z,100258.63
2022-12-25T22:26:35.080Z,100254.44
2022-12-25T22:29:01.653Z,100251.25
2022-12-25T22:31:28.099Z,100250.72
2022-12-25T22:33:55.337Z,100266.97
2022-12-25T22:36:21.785Z,100258.16
2022-12-25T22:38:48.166Z,100253.22
2022-12-25T22:41:14.619Z,100267.97
2022-12-25T22:44:15.279Z,100258.81
2022-12-25T22:46:27.446Z,100250.38
2022-12-25T22:48:53.957Z,100238.91
2022-12-25T22:51:20.371Z,100238.13
2022-12-25T22:53:46.740Z,100233.31
2022-12-25T22:56:13.129Z,100234.75
2022-12-25T22:58:39.513Z,100244.97
2022-12-25T23:01:09.122Z,100254.63
2022-12-25T23:03:35.641Z,100256.38
2022-12-25T23:06:02.146Z,100246.88
2022-12-25T23:08:28.675Z,100242.91
2022-12-25T23:10:55.872Z,100252.25
2022-12-25T23:13:40.853Z,100257.72
2022-12-25T23:16:13.163Z,100254.72
2022-12-25T23:18:58.353Z,100246.97
2022-12-25T23:21:43.891Z,100240.50
2022-12-25T23:24:28.873Z,100244.69
2022-12-25T23:26:55.362Z,100246.50
2022-12-25T23:29:36.845Z,100253.06
2022-12-25T23:32:03.117Z,100259.00
2022-12-25T23:34:29.525Z,100250.56
2022-12-25T23:36:55.901Z,100266.97
2022-12-25T23:39:22.316Z,100251.84
2022-12-25T23:41:48.712Z,100255.31
2022-12-25T23:44:15.127Z,100260.91
2022-12-25T23:46:52.527Z,100251.25
2022-12-25T23:49:20.401Z,100256.91
2022-12-25T23:51:46.906Z,100264.97
2022-12-25T23:54:16.200Z,100254.94
2022-12-25T23:56:43.559Z,100244.50
2022-12-25T23:59:10.774Z,100256.44
